Nossa Senhora Aparecida, Brazil
Current Conditions -  °F | °C
As of 6:00 PM on Monday 24 Nov 2014 (Local Time) from SBAR Reporting Station
Few Clouds Few Clouds  
Wind Chill: 26°   Ceiling: Unl
Heat Index: 27°   Visibility: 6mi
Dew Point: 21°   Wind: 9mph
Humidity: 74%   Direction: 100°E
Pressure: 29.91"   Gusts: NA
Location:  10.44°S, 37.49°W
Report Text: SBAR 242100Z 10008KT 9999 FEW017 26/21 Q1013
Loading
Personal Weather Stations






























Interactive Weather Map New forecast layout! Learn more

10-Day Weather Forecast

Advertisements
Track Severe Weather on mobile